sensor_id;sensor_type;location;lat;lon;timestamp;P1;durP1;ratioP1;P2;durP2;ratioP2
18653;SDS011;9456;47.824;16.228;2022-08-19T00:00:19;6.23;;;3.10;;
18653;SDS011;9456;47.824;16.228;2022-08-19T00:02:48;4.93;;;2.50;;
18653;SDS011;9456;47.824;16.228;2022-08-19T00:05:16;3.40;;;2.43;;
18653;SDS011;9456;47.824;16.228;2022-08-19T00:07:44;4.33;;;3.07;;
18653;SDS011;9456;47.824;16.228;2022-08-19T00:10:12;5.73;;;3.00;;
18653;SDS011;9456;47.824;16.228;2022-08-19T00:12:40;7.90;;;3.30;;
18653;SDS011;9456;47.824;16.228;2022-08-19T00:15:08;6.43;;;3.20;;
18653;SDS011;9456;47.824;16.228;2022-08-19T00:17:37;5.27;;;3.07;;
18653;SDS011;9456;47.824;16.228;2022-08-19T00:20:08;9.17;;;3.23;;
18653;SDS011;9456;47.824;16.228;2022-08-19T00:22:36;3.80;;;2.73;;
18653;SDS011;9456;47.824;16.228;2022-08-19T00:25:07;5.00;;;2.77;;
18653;SDS011;9456;47.824;16.228;2022-08-19T00:27:34;6.97;;;3.07;;
18653;SDS011;9456;47.824;16.228;2022-08-19T00:30:05;5.63;;;3.00;;
18653;SDS011;9456;47.824;16.228;2022-08-19T00:32:34;5.53;;;3.20;;
18653;SDS011;9456;47.824;16.228;2022-08-19T00:35:02;7.47;;;3.23;;
18653;SDS011;9456;47.824;16.228;2022-08-19T00:37:31;6.30;;;2.77;;
18653;SDS011;9456;47.824;16.228;2022-08-19T00:40:00;6.20;;;2.70;;
18653;SDS011;9456;47.824;16.228;2022-08-19T00:42:29;4.47;;;3.07;;
18653;SDS011;9456;47.824;16.228;2022-08-19T00:44:56;6.20;;;3.07;;
18653;SDS011;9456;47.824;16.228;2022-08-19T00:47:24;6.10;;;2.87;;
18653;SDS011;9456;47.824;16.228;2022-08-19T00:49:52;5.33;;;2.63;;
18653;SDS011;9456;47.824;16.228;2022-08-19T00:52:22;3.77;;;2.87;;
18653;SDS011;9456;47.824;16.228;2022-08-19T00:54:53;7.77;;;3.03;;
18653;SDS011;9456;47.824;16.228;2022-08-19T00:57:23;4.87;;;2.70;;
18653;SDS011;9456;47.824;16.228;2022-08-19T00:59:52;6.77;;;2.90;;
18653;SDS011;9456;47.824;16.228;2022-08-19T01:02:23;6.50;;;3.10;;
18653;SDS011;9456;47.824;16.228;2022-08-19T01:04:50;6.33;;;2.83;;
18653;SDS011;9456;47.824;16.228;2022-08-19T01:07:20;5.93;;;2.90;;
18653;SDS011;9456;47.824;16.228;2022-08-19T01:09:48;5.93;;;3.17;;
18653;SDS011;9456;47.824;16.228;2022-08-19T01:12:17;7.33;;;2.87;;
18653;SDS011;9456;47.824;16.228;2022-08-19T01:14:45;6.23;;;3.20;;
18653;SDS011;9456;47.824;16.228;2022-08-19T01:17:13;3.93;;;2.60;;
18653;SDS011;9456;47.824;16.228;2022-08-19T01:19:42;7.17;;;2.83;;
18653;SDS011;9456;47.824;16.228;2022-08-19T01:22:12;6.10;;;2.80;;
18653;SDS011;9456;47.824;16.228;2022-08-19T01:24:41;4.80;;;2.43;;
18653;SDS011;9456;47.824;16.228;2022-08-19T01:27:09;3.40;;;2.43;;
18653;SDS011;9456;47.824;16.228;2022-08-19T01:29:37;8.00;;;2.63;;
18653;SDS011;9456;47.824;16.228;2022-08-19T01:32:05;4.47;;;2.83;;
18653;SDS011;9456;47.824;16.228;2022-08-19T01:34:33;4.20;;;2.90;;
18653;SDS011;9456;47.824;16.228;2022-08-19T01:37:01;3.00;;;2.43;;
18653;SDS011;9456;47.824;16.228;2022-08-19T01:39:34;5.47;;;3.00;;
18653;SDS011;9456;47.824;16.228;2022-08-19T01:42:03;7.40;;;2.90;;
18653;SDS011;9456;47.824;16.228;2022-08-19T01:44:35;4.90;;;2.67;;
18653;SDS011;9456;47.824;16.228;2022-08-19T01:47:02;4.87;;;3.07;;
18653;SDS011;9456;47.824;16.228;2022-08-19T01:49:30;8.60;;;3.07;;
18653;SDS011;9456;47.824;16.228;2022-08-19T01:51:58;7.20;;;3.20;;
18653;SDS011;9456;47.824;16.228;2022-08-19T01:54:26;5.07;;;2.90;;
18653;SDS011;9456;47.824;16.228;2022-08-19T01:57:00;6.90;;;2.90;;
18653;SDS011;9456;47.824;16.228;2022-08-19T01:59:31;7.00;;;3.20;;
18653;SDS011;9456;47.824;16.228;2022-08-19T02:02:01;4.97;;;2.53;;
18653;SDS011;9456;47.824;16.228;2022-08-19T02:04:32;7.83;;;3.20;;
18653;SDS011;9456;47.824;16.228;2022-08-19T02:07:00;5.53;;;3.10;;
18653;SDS011;9456;47.824;16.228;2022-08-19T02:09:28;5.23;;;2.93;;
18653;SDS011;9456;47.824;16.228;2022-08-19T02:11:55;5.50;;;2.80;;
18653;SDS011;9456;47.824;16.228;2022-08-19T02:14:23;4.87;;;2.87;;
18653;SDS011;9456;47.824;16.228;2022-08-19T02:16:52;5.70;;;2.80;;
18653;SDS011;9456;47.824;16.228;2022-08-19T02:19:20;6.33;;;2.90;;
18653;SDS011;9456;47.824;16.228;2022-08-19T02:21:48;4.03;;;2.80;;
18653;SDS011;9456;47.824;16.228;2022-08-19T02:24:15;6.37;;;2.77;;
18653;SDS011;9456;47.824;16.228;2022-08-19T02:26:42;7.93;;;3.00;;
18653;SDS011;9456;47.824;16.228;2022-08-19T02:29:12;5.30;;;2.77;;
18653;SDS011;9456;47.824;16.228;2022-08-19T02:31:40;5.93;;;3.60;;
18653;SDS011;9456;47.824;16.228;2022-08-19T02:34:09;5.30;;;2.83;;
18653;SDS011;9456;47.824;16.228;2022-08-19T02:36:36;7.37;;;3.07;;
18653;SDS011;9456;47.824;16.228;2022-08-19T02:39:04;6.13;;;3.17;;
18653;SDS011;9456;47.824;16.228;2022-08-19T02:41:31;9.73;;;3.47;;
18653;SDS011;9456;47.824;16.228;2022-08-19T02:43:59;10.90;;;3.77;;
18653;SDS011;9456;47.824;16.228;2022-08-19T02:46:28;12.37;;;3.77;;
18653;SDS011;9456;47.824;16.228;2022-08-19T02:48:56;6.93;;;3.30;;
18653;SDS011;9456;47.824;16.228;2022-08-19T02:51:27;10.37;;;3.67;;
18653;SDS011;9456;47.824;16.228;2022-08-19T02:53:55;11.77;;;3.60;;
18653;SDS011;9456;47.824;16.228;2022-08-19T02:56:25;23.40;;;4.40;;
18653;SDS011;9456;47.824;16.228;2022-08-19T02:58:52;18.50;;;4.27;;
18653;SDS011;9456;47.824;16.228;2022-08-19T03:01:20;20.73;;;4.80;;
18653;SDS011;9456;47.824;16.228;2022-08-19T03:03:48;19.87;;;4.37;;
18653;SDS011;9456;47.824;16.228;2022-08-19T03:06:16;17.80;;;5.07;;
18653;SDS011;9456;47.824;16.228;2022-08-19T03:08:46;16.67;;;3.77;;
18653;SDS011;9456;47.824;16.228;2022-08-19T03:11:15;12.17;;;4.10;;
18653;SDS011;9456;47.824;16.228;2022-08-19T03:13:44;21.80;;;3.73;;
18653;SDS011;9456;47.824;16.228;2022-08-19T03:16:14;22.70;;;4.70;;
18653;SDS011;9456;47.824;16.228;2022-08-19T03:18:42;31.37;;;5.43;;
18653;SDS011;9456;47.824;16.228;2022-08-19T03:21:14;35.50;;;6.23;;
18653;SDS011;9456;47.824;16.228;2022-08-19T03:23:41;39.43;;;6.23;;
18653;SDS011;9456;47.824;16.228;2022-08-19T03:26:11;41.67;;;6.53;;
18653;SDS011;9456;47.824;16.228;2022-08-19T03:28:39;53.60;;;7.97;;
18653;SDS011;9456;47.824;16.228;2022-08-19T03:31:09;45.83;;;6.07;;
18653;SDS011;9456;47.824;16.228;2022-08-19T03:33:37;17.47;;;5.23;;
18653;SDS011;9456;47.824;16.228;2022-08-19T03:36:06;17.47;;;4.17;;
18653;SDS011;9456;47.824;16.228;2022-08-19T03:38:35;13.83;;;3.50;;
18653;SDS011;9456;47.824;16.228;2022-08-19T03:41:03;11.37;;;3.70;;
18653;SDS011;9456;47.824;16.228;2022-08-19T03:43:33;5.57;;;3.40;;
18653;SDS011;9456;47.824;16.228;2022-08-19T03:46:02;8.70;;;3.63;;
18653;SDS011;9456;47.824;16.228;2022-08-19T03:48:30;5.10;;;3.37;;
18653;SDS011;9456;47.824;16.228;2022-08-19T03:50:58;8.10;;;3.67;;
18653;SDS011;9456;47.824;16.228;2022-08-19T03:53:26;5.20;;;3.43;;
18653;SDS011;9456;47.824;16.228;2022-08-19T03:55:54;7.97;;;3.67;;
18653;SDS011;9456;47.824;16.228;2022-08-19T03:58:23;13.57;;;3.80;;
18653;SDS011;9456;47.824;16.228;2022-08-19T04:00:52;10.07;;;3.57;;
18653;SDS011;9456;47.824;16.228;2022-08-19T04:03:19;10.87;;;3.27;;
18653;SDS011;9456;47.824;16.228;2022-08-19T04:05:46;7.87;;;3.73;;
18653;SDS011;9456;47.824;16.228;2022-08-19T04:08:15;7.40;;;3.53;;
18653;SDS011;9456;47.824;16.228;2022-08-19T04:10:45;8.30;;;3.43;;
18653;SDS011;9456;47.824;16.228;2022-08-19T04:13:13;11.93;;;4.17;;
18653;SDS011;9456;47.824;16.228;2022-08-19T04:15:41;7.53;;;3.20;;
18653;SDS011;9456;47.824;16.228;2022-08-19T04:18:10;7.20;;;3.30;;
18653;SDS011;9456;47.824;16.228;2022-08-19T04:20:39;9.13;;;3.73;;
18653;SDS011;9456;47.824;16.228;2022-08-19T04:23:07;8.13;;;3.67;;
18653;SDS011;9456;47.824;16.228;2022-08-19T04:25:35;8.33;;;3.03;;
18653;SDS011;9456;47.824;16.228;2022-08-19T04:28:03;10.03;;;3.57;;
18653;SDS011;9456;47.824;16.228;2022-08-19T04:30:31;7.40;;;3.73;;
18653;SDS011;9456;47.824;16.228;2022-08-19T04:33:04;6.90;;;3.27;;
18653;SDS011;9456;47.824;16.228;2022-08-19T04:35:36;6.83;;;3.57;;
18653;SDS011;9456;47.824;16.228;2022-08-19T04:38:04;7.23;;;3.63;;
18653;SDS011;9456;47.824;16.228;2022-08-19T04:40:31;7.60;;;3.73;;
18653;SDS011;9456;47.824;16.228;2022-08-19T04:43:16;5.97;;;3.50;;
18653;SDS011;9456;47.824;16.228;2022-08-19T04:45:44;5.53;;;2.97;;
18653;SDS011;9456;47.824;16.228;2022-08-19T04:48:14;7.93;;;3.70;;
18653;SDS011;9456;47.824;16.228;2022-08-19T04:50:48;8.57;;;3.90;;
18653;SDS011;9456;47.824;16.228;2022-08-19T04:53:24;14.63;;;4.10;;
18653;SDS011;9456;47.824;16.228;2022-08-19T04:55:54;8.77;;;3.60;;
18653;SDS011;9456;47.824;16.228;2022-08-19T04:58:23;12.40;;;3.70;;
18653;SDS011;9456;47.824;16.228;2022-08-19T05:00:50;11.47;;;3.70;;
18653;SDS011;9456;47.824;16.228;2022-08-19T05:03:18;19.03;;;3.90;;
18653;SDS011;9456;47.824;16.228;2022-08-19T05:05:47;11.80;;;3.70;;
18653;SDS011;9456;47.824;16.228;2022-08-19T05:08:20;9.83;;;3.90;;
18653;SDS011;9456;47.824;16.228;2022-08-19T05:10:56;11.93;;;3.90;;
18653;SDS011;9456;47.824;16.228;2022-08-19T05:13:39;9.40;;;3.60;;
18653;SDS011;9456;47.824;16.228;2022-08-19T05:16:07;10.60;;;4.27;;
18653;SDS011;9456;47.824;16.228;2022-08-19T05:18:35;6.97;;;3.23;;
18653;SDS011;9456;47.824;16.228;2022-08-19T05:21:26;5.90;;;3.60;;
18653;SDS011;9456;47.824;16.228;2022-08-19T05:24:15;9.57;;;3.33;;
18653;SDS011;9456;47.824;16.228;2022-08-19T05:26:43;11.67;;;3.53;;
18653;SDS011;9456;47.824;16.228;2022-08-19T05:29:14;7.60;;;3.00;;
18653;SDS011;9456;47.824;16.228;2022-08-19T05:31:42;10.53;;;4.03;;
18653;SDS011;9456;47.824;16.228;2022-08-19T05:34:09;7.70;;;3.40;;
18653;SDS011;9456;47.824;16.228;2022-08-19T05:36:40;8.17;;;3.50;;
18653;SDS011;9456;47.824;16.228;2022-08-19T05:39:09;11.13;;;3.57;;
18653;SDS011;9456;47.824;16.228;2022-08-19T05:41:44;6.57;;;3.73;;
18653;SDS011;9456;47.824;16.228;2022-08-19T05:44:13;5.47;;;3.20;;
18653;SDS011;9456;47.824;16.228;2022-08-19T05:46:51;7.57;;;3.80;;
18653;SDS011;9456;47.824;16.228;2022-08-19T05:49:23;5.73;;;3.50;;
18653;SDS011;9456;47.824;16.228;2022-08-19T05:51:52;5.03;;;3.37;;
18653;SDS011;9456;47.824;16.228;2022-08-19T05:54:20;8.50;;;3.43;;
18653;SDS011;9456;47.824;16.228;2022-08-19T05:56:48;9.80;;;3.37;;
18653;SDS011;9456;47.824;16.228;2022-08-19T05:59:16;8.43;;;3.43;;
18653;SDS011;9456;47.824;16.228;2022-08-19T06:01:45;8.53;;;3.83;;
18653;SDS011;9456;47.824;16.228;2022-08-19T06:04:15;8.57;;;3.87;;
18653;SDS011;9456;47.824;16.228;2022-08-19T06:06:43;7.30;;;3.30;;
18653;SDS011;9456;47.824;16.228;2022-08-19T06:09:13;11.93;;;3.60;;
18653;SDS011;9456;47.824;16.228;2022-08-19T06:11:41;11.50;;;3.80;;
18653;SDS011;9456;47.824;16.228;2022-08-19T06:14:10;10.77;;;4.20;;
18653;SDS011;9456;47.824;16.228;2022-08-19T06:16:39;7.07;;;3.57;;
18653;SDS011;9456;47.824;16.228;2022-08-19T06:19:08;9.83;;;3.53;;
18653;SDS011;9456;47.824;16.228;2022-08-19T06:21:37;9.30;;;3.80;;
18653;SDS011;9456;47.824;16.228;2022-08-19T06:24:06;10.10;;;3.63;;
18653;SDS011;9456;47.824;16.228;2022-08-19T06:26:36;8.43;;;4.00;;
18653;SDS011;9456;47.824;16.228;2022-08-19T06:29:05;8.60;;;3.90;;
18653;SDS011;9456;47.824;16.228;2022-08-19T06:31:33;10.50;;;3.70;;
18653;SDS011;9456;47.824;16.228;2022-08-19T06:34:02;6.93;;;3.90;;
18653;SDS011;9456;47.824;16.228;2022-08-19T06:36:30;13.00;;;4.40;;
18653;SDS011;9456;47.824;16.228;2022-08-19T06:38:59;7.37;;;4.27;;
18653;SDS011;9456;47.824;16.228;2022-08-19T06:41:27;6.40;;;3.87;;
18653;SDS011;9456;47.824;16.228;2022-08-19T06:43:57;9.50;;;4.20;;
18653;SDS011;9456;47.824;16.228;2022-08-19T06:46:25;13.53;;;4.80;;
18653;SDS011;9456;47.824;16.228;2022-08-19T06:48:52;10.00;;;3.83;;
18653;SDS011;9456;47.824;16.228;2022-08-19T06:51:20;7.90;;;3.47;;
18653;SDS011;9456;47.824;16.228;2022-08-19T06:53:49;6.97;;;4.17;;
18653;SDS011;9456;47.824;16.228;2022-08-19T06:56:18;7.90;;;3.80;;
18653;SDS011;9456;47.824;16.228;2022-08-19T06:58:46;9.67;;;4.23;;
18653;SDS011;9456;47.824;16.228;2022-08-19T07:01:19;9.63;;;3.83;;
18653;SDS011;9456;47.824;16.228;2022-08-19T07:03:47;10.30;;;4.67;;
18653;SDS011;9456;47.824;16.228;2022-08-19T07:06:15;11.07;;;3.33;;
18653;SDS011;9456;47.824;16.228;2022-08-19T07:08:45;8.80;;;4.53;;
18653;SDS011;9456;47.824;16.228;2022-08-19T07:11:14;11.73;;;4.53;;
18653;SDS011;9456;47.824;16.228;2022-08-19T07:13:44;13.33;;;4.07;;
18653;SDS011;9456;47.824;16.228;2022-08-19T07:16:15;8.57;;;4.63;;
18653;SDS011;9456;47.824;16.228;2022-08-19T07:18:50;7.80;;;4.53;;
18653;SDS011;9456;47.824;16.228;2022-08-19T07:21:19;6.77;;;4.53;;
18653;SDS011;9456;47.824;16.228;2022-08-19T07:23:49;6.03;;;4.73;;
18653;SDS011;9456;47.824;16.228;2022-08-19T07:26:18;5.00;;;4.50;;
18653;SDS011;9456;47.824;16.228;2022-08-19T07:28:46;10.05;;;4.88;;
18653;SDS011;9456;47.824;16.228;2022-08-19T07:31:15;9.00;;;4.90;;
18653;SDS011;9456;47.824;16.228;2022-08-19T07:33:43;5.57;;;5.10;;
18653;SDS011;9456;47.824;16.228;2022-08-19T07:36:13;13.45;;;5.72;;
18653;SDS011;9456;47.824;16.228;2022-08-19T07:38:44;7.47;;;4.57;;
18653;SDS011;9456;47.824;16.228;2022-08-19T07:41:15;5.53;;;4.57;;
18653;SDS011;9456;47.824;16.228;2022-08-19T07:43:43;7.55;;;4.63;;
18653;SDS011;9456;47.824;16.228;2022-08-19T07:46:12;7.00;;;5.18;;
18653;SDS011;9456;47.824;16.228;2022-08-19T07:48:42;7.63;;;4.93;;
18653;SDS011;9456;47.824;16.228;2022-08-19T07:51:17;6.13;;;4.53;;
18653;SDS011;9456;47.824;16.228;2022-08-19T07:53:48;6.53;;;4.78;;
18653;SDS011;9456;47.824;16.228;2022-08-19T07:56:17;5.68;;;4.35;;
18653;SDS011;9456;47.824;16.228;2022-08-19T07:58:46;6.78;;;4.78;;
18653;SDS011;9456;47.824;16.228;2022-08-19T08:01:16;6.95;;;4.90;;
18653;SDS011;9456;47.824;16.228;2022-08-19T08:03:44;4.45;;;4.05;;
18653;SDS011;9456;47.824;16.228;2022-08-19T08:06:31;7.03;;;4.80;;
18653;SDS011;9456;47.824;16.228;2022-08-19T08:09:16;5.00;;;4.20;;
18653;SDS011;9456;47.824;16.228;2022-08-19T08:11:47;6.95;;;4.43;;
18653;SDS011;9456;47.824;16.228;2022-08-19T08:14:15;5.22;;;4.32;;
18653;SDS011;9456;47.824;16.228;2022-08-19T08:16:43;6.75;;;4.40;;
18653;SDS011;9456;47.824;16.228;2022-08-19T08:19:12;7.18;;;4.68;;
18653;SDS011;9456;47.824;16.228;2022-08-19T08:21:42;5.60;;;4.05;;
18653;SDS011;9456;47.824;16.228;2022-08-19T08:24:10;6.32;;;4.47;;
18653;SDS011;9456;47.824;16.228;2022-08-19T08:26:38;4.60;;;4.20;;
18653;SDS011;9456;47.824;16.228;2022-08-19T08:29:06;8.73;;;4.20;;
18653;SDS011;9456;47.824;16.228;2022-08-19T08:31:37;7.40;;;4.60;;
18653;SDS011;9456;47.824;16.228;2022-08-19T08:34:05;6.78;;;4.20;;
18653;SDS011;9456;47.824;16.228;2022-08-19T08:36:35;6.32;;;4.63;;
18653;SDS011;9456;47.824;16.228;2022-08-19T08:39:08;14.98;;;4.68;;
18653;SDS011;9456;47.824;16.228;2022-08-19T08:41:37;7.30;;;4.68;;
18653;SDS011;9456;47.824;16.228;2022-08-19T08:44:20;8.73;;;4.82;;
18653;SDS011;9456;47.824;16.228;2022-08-19T08:46:51;6.28;;;4.38;;
18653;SDS011;9456;47.824;16.228;2022-08-19T08:52:03;5.30;;;4.55;;
18653;SDS011;9456;47.824;16.228;2022-08-19T08:54:35;8.30;;;4.63;;
18653;SDS011;9456;47.824;16.228;2022-08-19T08:57:04;6.70;;;4.70;;
18653;SDS011;9456;47.824;16.228;2022-08-19T08:59:34;7.70;;;4.47;;
18653;SDS011;9456;47.824;16.228;2022-08-19T09:02:02;7.03;;;4.28;;
18653;SDS011;9456;47.824;16.228;2022-08-19T09:04:30;8.82;;;4.40;;
18653;SDS011;9456;47.824;16.228;2022-08-19T09:07:08;7.68;;;3.97;;
18653;SDS011;9456;47.824;16.228;2022-08-19T09:09:42;8.13;;;4.72;;
18653;SDS011;9456;47.824;16.228;2022-08-19T09:12:11;6.63;;;3.90;;
18653;SDS011;9456;47.824;16.228;2022-08-19T09:14:43;6.22;;;4.28;;
18653;SDS011;9456;47.824;16.228;2022-08-19T09:17:23;7.35;;;4.30;;
18653;SDS011;9456;47.824;16.228;2022-08-19T09:19:54;10.45;;;4.35;;
18653;SDS011;9456;47.824;16.228;2022-08-19T09:22:25;6.93;;;3.92;;
18653;SDS011;9456;47.824;16.228;2022-08-19T09:24:58;8.98;;;4.10;;
18653;SDS011;9456;47.824;16.228;2022-08-19T09:27:28;8.50;;;4.05;;
18653;SDS011;9456;47.824;16.228;2022-08-19T09:30:03;5.13;;;3.88;;
18653;SDS011;9456;47.824;16.228;2022-08-19T09:32:30;6.75;;;3.75;;
18653;SDS011;9456;47.824;16.228;2022-08-19T09:35:01;6.13;;;4.40;;
18653;SDS011;9456;47.824;16.228;2022-08-19T09:37:31;7.28;;;4.30;;
18653;SDS011;9456;47.824;16.228;2022-08-19T09:40:01;7.55;;;5.18;;
18653;SDS011;9456;47.824;16.228;2022-08-19T09:42:28;9.02;;;5.22;;
18653;SDS011;9456;47.824;16.228;2022-08-19T09:44:56;12.93;;;5.78;;
18653;SDS011;9456;47.824;16.228;2022-08-19T09:47:24;9.90;;;4.97;;
18653;SDS011;9456;47.824;16.228;2022-08-19T09:49:51;8.80;;;4.80;;
18653;SDS011;9456;47.824;16.228;2022-08-19T09:52:20;9.57;;;5.65;;
18653;SDS011;9456;47.824;16.228;2022-08-19T09:54:47;9.15;;;4.30;;
18653;SDS011;9456;47.824;16.228;2022-08-19T09:57:20;7.65;;;4.93;;
18653;SDS011;9456;47.824;16.228;2022-08-19T09:59:48;11.05;;;5.45;;
18653;SDS011;9456;47.824;16.228;2022-08-19T10:02:15;6.60;;;5.28;;
18653;SDS011;9456;47.824;16.228;2022-08-19T10:04:44;7.90;;;4.82;;
18653;SDS011;9456;47.824;16.228;2022-08-19T10:07:29;10.13;;;4.88;;
18653;SDS011;9456;47.824;16.228;2022-08-19T10:09:56;14.23;;;5.05;;
18653;SDS011;9456;47.824;16.228;2022-08-19T10:12:26;8.43;;;5.00;;
18653;SDS011;9456;47.824;16.228;2022-08-19T10:14:54;11.70;;;5.47;;
18653;SDS011;9456;47.824;16.228;2022-08-19T10:17:22;11.95;;;5.22;;
18653;SDS011;9456;47.824;16.228;2022-08-19T10:19:50;13.82;;;4.78;;
18653;SDS011;9456;47.824;16.228;2022-08-19T10:22:18;12.35;;;6.00;;
18653;SDS011;9456;47.824;16.228;2022-08-19T10:24:46;8.23;;;5.20;;
18653;SDS011;9456;47.824;16.228;2022-08-19T10:27:14;7.57;;;3.97;;
18653;SDS011;9456;47.824;16.228;2022-08-19T10:29:44;12.25;;;4.90;;
18653;SDS011;9456;47.824;16.228;2022-08-19T10:32:13;7.20;;;4.83;;
18653;SDS011;9456;47.824;16.228;2022-08-19T10:34:40;8.63;;;4.27;;
18653;SDS011;9456;47.824;16.228;2022-08-19T10:37:07;5.67;;;4.77;;
18653;SDS011;9456;47.824;16.228;2022-08-19T10:39:35;10.63;;;4.63;;
18653;SDS011;9456;47.824;16.228;2022-08-19T10:42:04;8.20;;;4.87;;
18653;SDS011;9456;47.824;16.228;2022-08-19T10:44:33;6.67;;;5.10;;
18653;SDS011;9456;47.824;16.228;2022-08-19T10:47:03;12.97;;;5.53;;
18653;SDS011;9456;47.824;16.228;2022-08-19T10:49:31;6.20;;;4.40;;
18653;SDS011;9456;47.824;16.228;2022-08-19T10:52:18;11.37;;;5.30;;
18653;SDS011;9456;47.824;16.228;2022-08-19T10:55:00;9.37;;;5.03;;
18653;SDS011;9456;47.824;16.228;2022-08-19T10:57:45;11.43;;;4.80;;
18653;SDS011;9456;47.824;16.228;2022-08-19T11:00:13;7.90;;;5.30;;
18653;SDS011;9456;47.824;16.228;2022-08-19T11:02:42;11.20;;;4.90;;
18653;SDS011;9456;47.824;16.228;2022-08-19T11:05:09;8.53;;;4.97;;
18653;SDS011;9456;47.824;16.228;2022-08-19T11:07:37;8.73;;;5.20;;
18653;SDS011;9456;47.824;16.228;2022-08-19T11:10:05;9.27;;;4.83;;
18653;SDS011;9456;47.824;16.228;2022-08-19T11:12:33;7.13;;;4.67;;
18653;SDS011;9456;47.824;16.228;2022-08-19T11:15:00;8.07;;;4.93;;
18653;SDS011;9456;47.824;16.228;2022-08-19T11:17:28;9.43;;;4.47;;
18653;SDS011;9456;47.824;16.228;2022-08-19T11:20:00;8.63;;;4.57;;
18653;SDS011;9456;47.824;16.228;2022-08-19T11:22:30;11.27;;;4.47;;
18653;SDS011;9456;47.824;16.228;2022-08-19T11:24:58;10.13;;;5.45;;
18653;SDS011;9456;47.824;16.228;2022-08-19T11:27:25;8.98;;;5.75;;
18653;SDS011;9456;47.824;16.228;2022-08-19T11:29:54;9.93;;;5.32;;
18653;SDS011;9456;47.824;16.228;2022-08-19T11:32:21;8.73;;;5.35;;
18653;SDS011;9456;47.824;16.228;2022-08-19T11:34:51;9.57;;;5.35;;
18653;SDS011;9456;47.824;16.228;2022-08-19T11:37:33;7.57;;;4.65;;
18653;SDS011;9456;47.824;16.228;2022-08-19T11:40:02;9.60;;;4.60;;
18653;SDS011;9456;47.824;16.228;2022-08-19T11:42:30;6.78;;;5.13;;
18653;SDS011;9456;47.824;16.228;2022-08-19T11:45:15;9.38;;;4.50;;
18653;SDS011;9456;47.824;16.228;2022-08-19T11:47:43;6.93;;;4.13;;
18653;SDS011;9456;47.824;16.228;2022-08-19T11:50:24;5.85;;;4.65;;
18653;SDS011;9456;47.824;16.228;2022-08-19T11:52:54;10.43;;;4.80;;
18653;SDS011;9456;47.824;16.228;2022-08-19T11:55:22;5.78;;;3.83;;
18653;SDS011;9456;47.824;16.228;2022-08-19T11:57:49;6.70;;;4.45;;
18653;SDS011;9456;47.824;16.228;2022-08-19T12:00:17;5.65;;;4.38;;
18653;SDS011;9456;47.824;16.228;2022-08-19T12:02:45;8.10;;;4.50;;
18653;SDS011;9456;47.824;16.228;2022-08-19T12:05:13;4.95;;;4.25;;
18653;SDS011;9456;47.824;16.228;2022-08-19T12:07:49;9.63;;;4.57;;
18653;SDS011;9456;47.824;16.228;2022-08-19T12:10:18;7.97;;;4.20;;
18653;SDS011;9456;47.824;16.228;2022-08-19T12:12:45;5.50;;;4.30;;
18653;SDS011;9456;47.824;16.228;2022-08-19T12:15:13;7.30;;;4.70;;
18653;SDS011;9456;47.824;16.228;2022-08-19T12:17:40;6.20;;;4.10;;
18653;SDS011;9456;47.824;16.228;2022-08-19T12:20:08;11.70;;;4.65;;
18653;SDS011;9456;47.824;16.228;2022-08-19T12:22:38;7.00;;;3.75;;
18653;SDS011;9456;47.824;16.228;2022-08-19T12:25:09;7.63;;;3.95;;
18653;SDS011;9456;47.824;16.228;2022-08-19T12:27:38;5.68;;;3.45;;
18653;SDS011;9456;47.824;16.228;2022-08-19T12:30:06;6.68;;;3.17;;
18653;SDS011;9456;47.824;16.228;2022-08-19T12:32:34;11.20;;;3.75;;
18653;SDS011;9456;47.824;16.228;2022-08-19T12:35:02;6.90;;;3.53;;
18653;SDS011;9456;47.824;16.228;2022-08-19T12:37:29;8.65;;;3.50;;
18653;SDS011;9456;47.824;16.228;2022-08-19T12:39:57;8.52;;;3.45;;
18653;SDS011;9456;47.824;16.228;2022-08-19T12:42:26;10.50;;;3.78;;
18653;SDS011;9456;47.824;16.228;2022-08-19T12:44:56;5.97;;;3.28;;
18653;SDS011;9456;47.824;16.228;2022-08-19T12:47:23;11.27;;;3.17;;
18653;SDS011;9456;47.824;16.228;2022-08-19T12:49:51;9.30;;;3.23;;
18653;SDS011;9456;47.824;16.228;2022-08-19T12:52:19;7.70;;;3.37;;
18653;SDS011;9456;47.824;16.228;2022-08-19T12:54:47;7.53;;;3.00;;
18653;SDS011;9456;47.824;16.228;2022-08-19T12:57:14;6.83;;;2.83;;
18653;SDS011;9456;47.824;16.228;2022-08-19T12:59:42;6.53;;;2.97;;
18653;SDS011;9456;47.824;16.228;2022-08-19T13:02:11;7.00;;;3.27;;
18653;SDS011;9456;47.824;16.228;2022-08-19T13:04:38;9.07;;;3.10;;
18653;SDS011;9456;47.824;16.228;2022-08-19T13:07:06;10.40;;;3.10;;
18653;SDS011;9456;47.824;16.228;2022-08-19T13:09:35;6.73;;;2.93;;
18653;SDS011;9456;47.824;16.228;2022-08-19T13:12:06;11.20;;;3.53;;
18653;SDS011;9456;47.824;16.228;2022-08-19T13:14:38;7.47;;;3.20;;
18653;SDS011;9456;47.824;16.228;2022-08-19T13:17:06;8.80;;;3.30;;
18653;SDS011;9456;47.824;16.228;2022-08-19T13:19:37;6.47;;;3.23;;
18653;SDS011;9456;47.824;16.228;2022-08-19T13:22:05;7.03;;;3.23;;
18653;SDS011;9456;47.824;16.228;2022-08-19T13:24:32;4.87;;;3.10;;
18653;SDS011;9456;47.824;16.228;2022-08-19T13:27:02;7.20;;;2.97;;
18653;SDS011;9456;47.824;16.228;2022-08-19T13:29:29;6.40;;;2.60;;
18653;SDS011;9456;47.824;16.228;2022-08-19T13:32:14;11.50;;;3.40;;
18653;SDS011;9456;47.824;16.228;2022-08-19T13:35:01;5.10;;;2.50;;
18653;SDS011;9456;47.824;16.228;2022-08-19T13:37:28;6.67;;;2.90;;
18653;SDS011;9456;47.824;16.228;2022-08-19T13:40:09;4.00;;;2.67;;
18653;SDS011;9456;47.824;16.228;2022-08-19T13:42:43;6.00;;;3.10;;
18653;SDS011;9456;47.824;16.228;2022-08-19T13:45:25;6.57;;;2.80;;
18653;SDS011;9456;47.824;16.228;2022-08-19T13:47:54;4.73;;;2.93;;
18653;SDS011;9456;47.824;16.228;2022-08-19T13:50:26;5.40;;;2.63;;
18653;SDS011;9456;47.824;16.228;2022-08-19T13:52:54;7.97;;;2.90;;
18653;SDS011;9456;47.824;16.228;2022-08-19T13:55:23;7.57;;;2.85;;
18653;SDS011;9456;47.824;16.228;2022-08-19T13:57:53;6.30;;;3.20;;
18653;SDS011;9456;47.824;16.228;2022-08-19T14:00:24;5.75;;;2.58;;
18653;SDS011;9456;47.824;16.228;2022-08-19T14:02:59;4.72;;;2.40;;
18653;SDS011;9456;47.824;16.228;2022-08-19T14:05:42;6.65;;;2.85;;
18653;SDS011;9456;47.824;16.228;2022-08-19T14:08:20;4.15;;;2.40;;
18653;SDS011;9456;47.824;16.228;2022-08-19T14:10:47;5.38;;;2.55;;
18653;SDS011;9456;47.824;16.228;2022-08-19T14:13:29;5.90;;;2.47;;
18653;SDS011;9456;47.824;16.228;2022-08-19T14:16:06;5.40;;;2.60;;
18653;SDS011;9456;47.824;16.228;2022-08-19T14:18:43;7.07;;;2.45;;
18653;SDS011;9456;47.824;16.228;2022-08-19T14:21:15;7.72;;;3.00;;
18653;SDS011;9456;47.824;16.228;2022-08-19T14:23:45;5.07;;;2.72;;
18653;SDS011;9456;47.824;16.228;2022-08-19T14:26:16;3.85;;;2.67;;
18653;SDS011;9456;47.824;16.228;2022-08-19T14:28:45;4.63;;;2.58;;
18653;SDS011;9456;47.824;16.228;2022-08-19T14:31:15;9.52;;;2.78;;
18653;SDS011;9456;47.824;16.228;2022-08-19T14:33:44;9.88;;;2.95;;
18653;SDS011;9456;47.824;16.228;2022-08-19T14:36:12;6.68;;;2.80;;
18653;SDS011;9456;47.824;16.228;2022-08-19T14:38:41;5.35;;;3.40;;
18653;SDS011;9456;47.824;16.228;2022-08-19T14:41:10;6.13;;;3.05;;
18653;SDS011;9456;47.824;16.228;2022-08-19T14:43:38;7.70;;;3.95;;
18653;SDS011;9456;47.824;16.228;2022-08-19T14:46:06;6.68;;;3.35;;
18653;SDS011;9456;47.824;16.228;2022-08-19T14:48:35;6.10;;;3.28;;
18653;SDS011;9456;47.824;16.228;2022-08-19T14:51:08;6.63;;;2.90;;
18653;SDS011;9456;47.824;16.228;2022-08-19T14:53:37;7.70;;;3.60;;
18653;SDS011;9456;47.824;16.228;2022-08-19T14:56:08;5.03;;;2.87;;
18653;SDS011;9456;47.824;16.228;2022-08-19T14:58:36;6.60;;;3.20;;
18653;SDS011;9456;47.824;16.228;2022-08-19T15:01:05;9.57;;;3.03;;
18653;SDS011;9456;47.824;16.228;2022-08-19T15:03:41;6.40;;;3.10;;